Flight Track Log - Related Links

Times and Time Zones

All times are in EDT time to prevent confusion due to time zone crossing. See the RPA3321 flight status page for this flight to view local times or setup timezone preferences in your user account.

Time Position Orientation Groundspeed Altitude Reporting Facility
EDT Latitude Longitude Course Direction KTS MPH feet Rate Location/Type
Mon 05:38:34 AM 42.7611 -73.8061 166° South 137 158 1,200  Level Boston Center
Mon 05:39:40 AM 42.8022 -73.8436 326° Northwest 180 207 3,300 2,155 Climbing Boston Center
Mon 05:40:56 AM 42.8472 -73.9128 312° West 230 265 6,300 2,338 Climbing Boston Center
Mon 05:41:00 AM 42.4165 -74.0966 180° South  Level Estimated
Mon 05:41:56 AM 42.8650 -73.9839 289° West 230 265 8,600  Level Boston Center
Mon 05:42:00 AM 42.3333 -74.1698 172° South  Level Estimated
Mon 05:42:56 AM 42.8572 -74.0969 265° West 224 258 11,400  Level Boston Center
Mon 05:43:00 AM 42.2500 -74.2428 172° South  Level Estimated
Mon 05:43:56 AM 42.8289 -74.1756 244° Southwest 239 275 13,500  Level Boston Center
Mon 05:44:00 AM 42.1666 -74.3156 166° South  Level Estimated
Mon 05:44:56 AM 42.7397 -74.1503 168° South 240 276 15,400  Level Boston Center
Mon 05:45:56 AM 42.6614 -74.1031 156° South 299 344 17,200 1,750 Climbing Boston Center
Mon 05:46:56 AM 42.5828 -74.0586 157° South 330 380 18,900 1,700 Climbing Boston Center
Mon 05:47:56 AM 42.4833 -74.0053 158° South 342 394 20,600 1,700 Climbing Boston Center
Mon 05:48:56 AM 42.3925 -73.9553 158° South 349 402 22,300 1,750 Climbing Boston Center
Mon 05:49:56 AM 42.2992 -73.8997 156° South 354 407 24,100 1,650 Climbing Boston Center
Mon 05:50:56 AM 42.2042 -73.8500 159° South 360 414 25,600 950 Climbing Boston Center
Mon 05:51:56 AM 42.1047 -73.7972 159° South 376 433 26,000 200 Climbing Boston Center
Mon 05:52:56 AM 42.0189 -73.8261 194° South 337 388 26,000  Level Boston Center
Mon 05:53:56 AM 41.9350 -73.8661 200° South 322 371 26,000  Level Boston Center
Mon 05:56:07 AM 41.7561 -73.9494 199° South 329 379 26,000  Level New York Center
Mon 05:57:07 AM 41.6736 -73.9897 200° South 329 379 26,000  Level New York Center
Mon 05:58:07 AM 41.5811 -74.0297 198° South 329 379 26,000  Level New York Center
Mon 05:59:07 AM 41.5114 -74.0650 201° Southwest 324 373 26,000  Level New York Center
Mon 06:00:07 AM 41.4247 -74.1050 199° South 324 373 26,000  Level New York Center
Mon 06:01:07 AM 41.3425 -74.1453 200° South 324 373 26,000  Level New York Center
Mon 06:02:05 AM 41.2558 -74.1850 199° South 324 373 26,000  Level New York Center
Mon 06:03:08 AM 41.1694 -74.2219 198° South 332 382 26,000  Level New York Center
Mon 06:04:05 AM 41.0850 -74.2644 201° Southwest 332 382 26,000  Level New York Center
Mon 06:05:05 AM 41.0006 -74.3039 199° South 332 382 26,000  Level New York Center
Mon 06:06:06 AM 40.9158 -74.3436 200° South 332 382 26,000  Level New York Center
Mon 06:07:06 AM 40.8292 -74.3828 199° South 332 382 26,000  Level New York Center
Mon 06:08:06 AM 40.7606 -74.4506 217° Southwest 326 375 26,000  Level New York Center
Mon 06:09:07 AM 40.7033 -74.5431 231° Southwest 310 357 26,000  Level New York Center
Mon 06:10:07 AM 40.6483 -74.6358 232° Southwest 329 379 26,000  Level New York Center
Mon 06:11:06 AM 40.5911 -74.7311 232° Southwest 334 384 26,000 -407 Level New York Center
Mon 06:12:05 AM 40.5275 -74.8231 228° Southwest 340 391 25,200 -1,210 Descending New York Center
Mon 06:13:05 AM 40.4683 -74.9067 227° Southwest 340 391 23,600 -1,100 Descending New York Center
Mon 06:14:05 AM 40.4069 -74.9931 227° Southwest 330 380 23,000 -298 Descending New York Center
Mon 06:15:06 AM 40.3453 -75.0819 228° Southwest 330 380 23,000 -200 Level New York Center
Mon 06:16:05 AM 40.2817 -75.1650 225° Southwest 330 380 22,600 -496 Descending New York Center
Mon 06:17:07 AM 40.2222 -75.2536 229° Southwest 330 380 22,000 -298 Descending New York Center
Mon 06:18:06 AM 40.1606 -75.3392 227° Southwest 330 380 22,000  Level New York Center
Mon 06:19:07 AM 40.0989 -75.4247 227° Southwest 330 380 22,000  Level New York Center
Mon 06:20:07 AM 40.0369 -75.5100 227° Southwest 330 380 22,000  Level New York Center
Mon 06:21:07 AM 39.9686 -75.6031 226° Southwest 330 380 22,000  Level New York Center
Mon 06:22:05 AM 39.9064 -75.6961 229° Southwest 335 386 22,000  Level New York Center
Mon 06:23:06 AM 39.8628 -75.7903 239° Southwest 329 379 22,000 -550 Level New York Center
Mon 06:24:05 AM 39.8267 -75.9014 247° West 323 372 20,900 -1,400 Descending New York Center
Mon 06:25:06 AM 39.7931 -76.0069 248° West 323 372 19,200 -1,574 Descending New York Center
Mon 06:26:07 AM 39.7592 -76.1125 247° West 323 372 17,700 -1,613 Descending New York Center
Mon 06:27:05 AM 39.7314 -76.2156 251° West 323 372 16,000 -1,059 Descending New York Center
Mon 06:28:40 AM 39.6333 -76.3500 227° Southwest 315 362 15,000 -800 Descending Potomac TRACON
Mon 06:29:35 AM 39.5667 -76.4000 210° Southwest 313 360 14,000 -1,357 Descending Potomac TRACON
Mon 06:30:35 AM 39.5000 -76.4500 210° Southwest 307 353 12,400 -1,053 Descending Potomac TRACON
Mon 06:31:29 AM 39.4167 -76.4833 197° South 307 353 12,000 -222 Descending Potomac TRACON
Mon 06:32:23 AM 39.3667 -76.5500 226° Southwest 286 329 12,000 -100 Level Potomac TRACON
Mon 06:33:29 AM 39.3333 -76.6333 243° Southwest 258 297 11,800 -789 Descending Potomac TRACON
Mon 06:34:17 AM 39.2833 -76.6500 194° South 272 313 10,500 -1,000 Descending Potomac TRACON
Mon 06:35:17 AM 39.2000 -76.6500 180° South 268 308 10,000 -250 Descending Potomac TRACON
Mon 06:36:17 AM 39.1333 -76.7000 210° Southwest 257 296 10,000 50 Level Potomac TRACON
Mon 06:37:17 AM 39.0833 -76.7667 226° Southwest 255 293 10,100 50 Climbing Potomac TRACON
Mon 06:38:17 AM 39.0333 -76.8167 218° Southwest 252 290 10,100  Level Potomac TRACON
Mon 06:39:17 AM 38.9833 -76.8833 226° Southwest 251 289 10,100 -950 Level Potomac TRACON
Mon 06:40:17 AM 38.9333 -76.9333 218° Southwest 254 292 8,200 -2,050 Descending Potomac TRACON
Mon 06:41:17 AM 38.8500 -76.9500 189° South 291 335 6,000 -2,050 Descending Potomac TRACON
Mon 06:42:17 AM 38.7833 -76.9500 180° South 279 321 4,100 -1,000 Descending Potomac TRACON
Mon 06:43:17 AM 38.7167 -76.9333 169° South 211 243 4,000 -632 Descending Potomac TRACON
Mon 06:44:11 AM 38.7000 -76.9833 247° West 159 183 2,900 -789 Descending Potomac TRACON
Mon 06:45:11 AM 38.7167 -77.0167 303° West 164 189 2,500 -550 Descending Potomac TRACON
Mon 06:46:11 AM 38.7667 -77.0333 345° North 165 190 1,800 -700 Descending Potomac TRACON

Login

Don't have an account? Register now (free) for customized features, flight alerts, and more!